sensor_id;sensor_type;location;lat;lon;timestamp;temperature;humidity
69776;DHT22;57049;51.450;-2.516;2023-07-20T00:01:12;12.97;87.49
69776;DHT22;57049;51.450;-2.516;2023-07-20T00:03:38;12.95;87.76
69776;DHT22;57049;51.450;-2.516;2023-07-20T00:06:04;12.89;87.88
69776;DHT22;57049;51.450;-2.516;2023-07-20T00:08:29;12.85;88.00
69776;DHT22;57049;51.450;-2.516;2023-07-20T00:10:55;12.86;87.98
69776;DHT22;57049;51.450;-2.516;2023-07-20T00:13:20;12.83;87.97
69776;DHT22;57049;51.450;-2.516;2023-07-20T00:15:46;12.82;88.15
69776;DHT22;57049;51.450;-2.516;2023-07-20T00:18:12;12.78;88.10
69776;DHT22;57049;51.450;-2.516;2023-07-20T00:20:37;12.76;88.28
69776;DHT22;57049;51.450;-2.516;2023-07-20T00:23:03;12.73;88.34
69776;DHT22;57049;51.450;-2.516;2023-07-20T00:25:29;12.73;88.52
69776;DHT22;57049;51.450;-2.516;2023-07-20T00:27:54;12.68;88.48
69776;DHT22;57049;51.450;-2.516;2023-07-20T00:30:20;12.63;88.54
69776;DHT22;57049;51.450;-2.516;2023-07-20T00:32:45;12.58;88.78
69776;DHT22;57049;51.450;-2.516;2023-07-20T00:35:11;12.53;89.14
69776;DHT22;57049;51.450;-2.516;2023-07-20T00:37:38;12.48;89.38
69776;DHT22;57049;51.450;-2.516;2023-07-20T00:40:04;12.44;89.83
69776;DHT22;57049;51.450;-2.516;2023-07-20T00:42:33;12.37;90.20
69776;DHT22;57049;51.450;-2.516;2023-07-20T00:44:59;12.32;90.44
69776;DHT22;57049;51.450;-2.516;2023-07-20T00:47:26;12.31;90.92
69776;DHT22;57049;51.450;-2.516;2023-07-20T00:49:52;12.28;91.11
69776;DHT22;57049;51.450;-2.516;2023-07-20T00:52:19;12.22;91.47
69776;DHT22;57049;51.450;-2.516;2023-07-20T00:54:47;12.18;91.74
69776;DHT22;57049;51.450;-2.516;2023-07-20T00:57:14;12.15;92.00
69776;DHT22;57049;51.450;-2.516;2023-07-20T00:59:39;12.11;92.15
69776;DHT22;57049;51.450;-2.516;2023-07-20T01:02:05;12.07;91.99
69776;DHT22;57049;51.450;-2.516;2023-07-20T01:04:31;12.05;92.23
69776;DHT22;57049;51.450;-2.516;2023-07-20T01:09:58;11.98;92.12
69776;DHT22;57049;51.450;-2.516;2023-07-20T01:12:32;11.99;91.91
69776;DHT22;57049;51.450;-2.516;2023-07-20T01:15:00;11.97;91.91
69776;DHT22;57049;51.450;-2.516;2023-07-20T01:17:25;11.95;91.76
69776;DHT22;57049;51.450;-2.516;2023-07-20T01:19:51;11.93;91.73
69776;DHT22;57049;51.450;-2.516;2023-07-20T01:30:34;11.87;91.45
69776;DHT22;57049;51.450;-2.516;2023-07-20T01:33:01;11.84;91.23
69776;DHT22;57049;51.450;-2.516;2023-07-20T01:35:30;11.83;91.29
69776;DHT22;57049;51.450;-2.516;2023-07-20T01:37:59;11.78;91.40
69776;DHT22;57049;51.450;-2.516;2023-07-20T01:40:25;11.76;91.66
69776;DHT22;57049;51.450;-2.516;2023-07-20T01:42:52;11.73;91.71
69776;DHT22;57049;51.450;-2.516;2023-07-20T01:45:19;11.67;91.86
69776;DHT22;57049;51.450;-2.516;2023-07-20T01:47:44;11.62;92.03
69776;DHT22;57049;51.450;-2.516;2023-07-20T01:50:10;11.59;92.26
69776;DHT22;57049;51.450;-2.516;2023-07-20T01:52:35;11.57;92.29
69776;DHT22;57049;51.450;-2.516;2023-07-20T01:55:01;11.52;92.29
69776;DHT22;57049;51.450;-2.516;2023-07-20T01:57:26;11.52;92.79
69776;DHT22;57049;51.450;-2.516;2023-07-20T01:59:52;11.44;92.60
69776;DHT22;57049;51.450;-2.516;2023-07-20T02:02:18;11.49;92.53
69776;DHT22;57049;51.450;-2.516;2023-07-20T02:04:43;11.46;92.71
69776;DHT22;57049;51.450;-2.516;2023-07-20T02:07:09;11.42;92.82
69776;DHT22;57049;51.450;-2.516;2023-07-20T02:09:34;11.39;93.07
69776;DHT22;57049;51.450;-2.516;2023-07-20T02:12:00;11.36;93.25
69776;DHT22;57049;51.450;-2.516;2023-07-20T02:14:25;11.32;93.14
69776;DHT22;57049;51.450;-2.516;2023-07-20T02:16:51;11.30;93.30
69776;DHT22;57049;51.450;-2.516;2023-07-20T02:19:17;11.29;93.36
69776;DHT22;57049;51.450;-2.516;2023-07-20T02:21:43;11.27;93.48
69776;DHT22;57049;51.450;-2.516;2023-07-20T02:24:09;11.29;93.52
69776;DHT22;57049;51.450;-2.516;2023-07-20T02:26:34;11.27;93.55
69776;DHT22;57049;51.450;-2.516;2023-07-20T02:28:59;11.33;93.37
69776;DHT22;57049;51.450;-2.516;2023-07-20T02:31:25;11.44;92.77
69776;DHT22;57049;51.450;-2.516;2023-07-20T02:33:50;11.56;92.18
69776;DHT22;57049;51.450;-2.516;2023-07-20T02:36:15;11.67;91.90
69776;DHT22;57049;51.450;-2.516;2023-07-20T02:38:42;11.74;91.42
69776;DHT22;57049;51.450;-2.516;2023-07-20T02:41:07;11.73;91.54
69776;DHT22;57049;51.450;-2.516;2023-07-20T02:43:33;11.66;91.55
69776;DHT22;57049;51.450;-2.516;2023-07-20T02:45:58;11.59;91.62
69776;DHT22;57049;51.450;-2.516;2023-07-20T02:48:24;11.50;91.96
69776;DHT22;57049;51.450;-2.516;2023-07-20T02:50:49;11.46;92.10
69776;DHT22;57049;51.450;-2.516;2023-07-20T02:53:15;11.39;92.39
69776;DHT22;57049;51.450;-2.516;2023-07-20T02:55:40;11.30;92.57
69776;DHT22;57049;51.450;-2.516;2023-07-20T02:58:05;11.26;92.81
69776;DHT22;57049;51.450;-2.516;2023-07-20T03:00:31;11.19;93.10
69776;DHT22;57049;51.450;-2.516;2023-07-20T03:02:56;11.16;93.44
69776;DHT22;57049;51.450;-2.516;2023-07-20T03:05:22;11.15;93.55
69776;DHT22;57049;51.450;-2.516;2023-07-20T03:07:50;11.12;93.37
69776;DHT22;57049;51.450;-2.516;2023-07-20T03:10:16;11.09;93.53
69776;DHT22;57049;51.450;-2.516;2023-07-20T03:12:42;11.02;93.74
69776;DHT22;57049;51.450;-2.516;2023-07-20T03:15:08;10.99;93.85
69776;DHT22;57049;51.450;-2.516;2023-07-20T03:17:33;10.96;93.85
69776;DHT22;57049;51.450;-2.516;2023-07-20T03:19:59;10.96;94.02
69776;DHT22;57049;51.450;-2.516;2023-07-20T03:22:25;10.89;94.27
69776;DHT22;57049;51.450;-2.516;2023-07-20T03:24:51;10.84;94.45
69776;DHT22;57049;51.450;-2.516;2023-07-20T03:27:17;10.79;94.88
69776;DHT22;57049;51.450;-2.516;2023-07-20T03:29:43;10.76;94.76
69776;DHT22;57049;51.450;-2.516;2023-07-20T03:32:09;10.74;94.69
69776;DHT22;57049;51.450;-2.516;2023-07-20T03:34:35;10.71;94.66
69776;DHT22;57049;51.450;-2.516;2023-07-20T03:37:00;10.74;94.75
69776;DHT22;57049;51.450;-2.516;2023-07-20T03:39:26;10.74;95.05
69776;DHT22;57049;51.450;-2.516;2023-07-20T03:41:52;10.69;94.85
69776;DHT22;57049;51.450;-2.516;2023-07-20T03:44:17;10.67;95.07
69776;DHT22;57049;51.450;-2.516;2023-07-20T03:46:43;10.60;95.19
69776;DHT22;57049;51.450;-2.516;2023-07-20T03:49:09;10.60;95.36
69776;DHT22;57049;51.450;-2.516;2023-07-20T03:51:35;10.55;95.25
69776;DHT22;57049;51.450;-2.516;2023-07-20T03:54:01;10.51;95.43
69776;DHT22;57049;51.450;-2.516;2023-07-20T03:56:27;10.52;95.68
69776;DHT22;57049;51.450;-2.516;2023-07-20T03:58:53;10.52;95.61
69776;DHT22;57049;51.450;-2.516;2023-07-20T04:01:18;10.52;95.69
69776;DHT22;57049;51.450;-2.516;2023-07-20T04:03:44;10.50;95.71
69776;DHT22;57049;51.450;-2.516;2023-07-20T04:06:09;10.50;95.72
69776;DHT22;57049;51.450;-2.516;2023-07-20T04:08:36;10.50;95.54
69776;DHT22;57049;51.450;-2.516;2023-07-20T04:11:02;10.50;95.61
69776;DHT22;57049;51.450;-2.516;2023-07-20T04:13:27;10.44;95.75
69776;DHT22;57049;51.450;-2.516;2023-07-20T04:15:53;10.41;95.92
69776;DHT22;57049;51.450;-2.516;2023-07-20T04:18:18;10.43;96.11
69776;DHT22;57049;51.450;-2.516;2023-07-20T04:20:45;10.37;96.10
69776;DHT22;57049;51.450;-2.516;2023-07-20T04:23:10;10.43;95.92
69776;DHT22;57049;51.450;-2.516;2023-07-20T04:25:36;10.38;95.93
69776;DHT22;57049;51.450;-2.516;2023-07-20T04:28:07;10.43;95.94
69776;DHT22;57049;51.450;-2.516;2023-07-20T04:30:36;10.43;95.91
69776;DHT22;57049;51.450;-2.516;2023-07-20T04:33:02;10.45;95.85
69776;DHT22;57049;51.450;-2.516;2023-07-20T04:35:53;10.47;96.00
69776;DHT22;57049;51.450;-2.516;2023-07-20T04:38:20;10.44;96.11
69776;DHT22;57049;51.450;-2.516;2023-07-20T04:40:49;10.47;96.10
69776;DHT22;57049;51.450;-2.516;2023-07-20T04:43:16;10.50;96.20
69776;DHT22;57049;51.450;-2.516;2023-07-20T04:45:42;10.50;96.07
69776;DHT22;57049;51.450;-2.516;2023-07-20T04:48:12;10.52;96.05
69776;DHT22;57049;51.450;-2.516;2023-07-20T04:50:40;10.57;95.97
69776;DHT22;57049;51.450;-2.516;2023-07-20T04:53:05;10.57;95.91
69776;DHT22;57049;51.450;-2.516;2023-07-20T04:55:31;10.61;95.79
69776;DHT22;57049;51.450;-2.516;2023-07-20T04:58:00;10.62;95.85
69776;DHT22;57049;51.450;-2.516;2023-07-20T05:00:25;10.62;95.65
69776;DHT22;57049;51.450;-2.516;2023-07-20T05:02:51;10.69;95.67
69776;DHT22;57049;51.450;-2.516;2023-07-20T05:05:16;10.74;95.84
69776;DHT22;57049;51.450;-2.516;2023-07-20T05:07:41;10.79;95.64
69776;DHT22;57049;51.450;-2.516;2023-07-20T05:10:07;10.85;95.76
69776;DHT22;57049;51.450;-2.516;2023-07-20T05:12:33;10.85;95.58
69776;DHT22;57049;51.450;-2.516;2023-07-20T05:14:58;10.92;95.62
69776;DHT22;57049;51.450;-2.516;2023-07-20T05:17:24;10.94;95.40
69776;DHT22;57049;51.450;-2.516;2023-07-20T05:19:50;11.01;95.48
69776;DHT22;57049;51.450;-2.516;2023-07-20T05:22:16;11.09;95.51
69776;DHT22;57049;51.450;-2.516;2023-07-20T05:24:42;11.15;95.41
69776;DHT22;57049;51.450;-2.516;2023-07-20T05:27:07;11.22;95.38
69776;DHT22;57049;51.450;-2.516;2023-07-20T05:29:33;11.27;94.99
69776;DHT22;57049;51.450;-2.516;2023-07-20T05:31:58;11.30;94.84
69776;DHT22;57049;51.450;-2.516;2023-07-20T05:34:24;11.43;94.93
69776;DHT22;57049;51.450;-2.516;2023-07-20T05:36:49;11.62;94.80
69776;DHT22;57049;51.450;-2.516;2023-07-20T05:39:17;11.88;94.49
69776;DHT22;57049;51.450;-2.516;2023-07-20T05:41:43;12.11;93.75
69776;DHT22;57049;51.450;-2.516;2023-07-20T05:44:08;12.28;93.51
69776;DHT22;57049;51.450;-2.516;2023-07-20T05:46:33;12.79;92.31
69776;DHT22;57049;51.450;-2.516;2023-07-20T05:48:59;14.08;89.45
69776;DHT22;57049;51.450;-2.516;2023-07-20T05:51:25;15.20;85.87
69776;DHT22;57049;51.450;-2.516;2023-07-20T05:53:50;16.17;81.62
69776;DHT22;57049;51.450;-2.516;2023-07-20T05:56:16;17.05;78.52
69776;DHT22;57049;51.450;-2.516;2023-07-20T05:58:42;17.38;76.75
69776;DHT22;57049;51.450;-2.516;2023-07-20T06:01:07;16.84;77.51
69776;DHT22;57049;51.450;-2.516;2023-07-20T06:03:33;16.50;78.31
69776;DHT22;57049;51.450;-2.516;2023-07-20T06:06:03;16.44;77.58
69776;DHT22;57049;51.450;-2.516;2023-07-20T06:08:32;16.84;75.56
69776;DHT22;57049;51.450;-2.516;2023-07-20T06:10:57;17.38;74.71
69776;DHT22;57049;51.450;-2.516;2023-07-20T06:13:23;17.74;74.73
69776;DHT22;57049;51.450;-2.516;2023-07-20T06:15:49;18.31;73.38
69776;DHT22;57049;51.450;-2.516;2023-07-20T06:18:14;19.22;72.03
69776;DHT22;57049;51.450;-2.516;2023-07-20T06:20:40;20.45;68.64
69776;DHT22;57049;51.450;-2.516;2023-07-20T06:23:06;21.31;65.37
69776;DHT22;57049;51.450;-2.516;2023-07-20T06:25:31;21.83;63.16
69776;DHT22;57049;51.450;-2.516;2023-07-20T06:27:57;21.40;62.54
69776;DHT22;57049;51.450;-2.516;2023-07-20T06:30:22;21.59;62.63
69776;DHT22;57049;51.450;-2.516;2023-07-20T06:32:48;22.50;61.42
69776;DHT22;57049;51.450;-2.516;2023-07-20T06:35:14;22.93;60.12
69776;DHT22;57049;51.450;-2.516;2023-07-20T06:37:39;23.12;58.36
69776;DHT22;57049;51.450;-2.516;2023-07-20T06:40:06;22.83;58.53
69776;DHT22;57049;51.450;-2.516;2023-07-20T06:42:31;21.88;61.14
69776;DHT22;57049;51.450;-2.516;2023-07-20T06:44:57;22.57;60.00
69776;DHT22;57049;51.450;-2.516;2023-07-20T06:47:23;22.65;58.14
69776;DHT22;57049;51.450;-2.516;2023-07-20T06:49:48;23.10;56.76
69776;DHT22;57049;51.450;-2.516;2023-07-20T06:52:15;23.70;57.13
69776;DHT22;57049;51.450;-2.516;2023-07-20T06:54:40;21.89;57.54
69776;DHT22;57049;51.450;-2.516;2023-07-20T06:57:05;23.39;58.16
69776;DHT22;57049;51.450;-2.516;2023-07-20T06:59:31;24.46;55.30
69776;DHT22;57049;51.450;-2.516;2023-07-20T07:01:56;24.99;53.18
69776;DHT22;57049;51.450;-2.516;2023-07-20T07:04:22;24.50;52.71
69776;DHT22;57049;51.450;-2.516;2023-07-20T07:06:47;24.30;54.93
69776;DHT22;57049;51.450;-2.516;2023-07-20T07:09:13;24.21;54.78
69776;DHT22;57049;51.450;-2.516;2023-07-20T07:11:39;24.05;55.41
69776;DHT22;57049;51.450;-2.516;2023-07-20T07:14:04;23.44;56.80
69776;DHT22;57049;51.450;-2.516;2023-07-20T07:16:30;23.35;56.09
69776;DHT22;57049;51.450;-2.516;2023-07-20T07:18:55;23.35;55.88
69776;DHT22;57049;51.450;-2.516;2023-07-20T07:21:21;22.59;57.24
69776;DHT22;57049;51.450;-2.516;2023-07-20T07:23:46;22.06;58.42
69776;DHT22;57049;51.450;-2.516;2023-07-20T07:26:12;22.19;58.50
69776;DHT22;57049;51.450;-2.516;2023-07-20T07:28:38;23.19;59.03
69776;DHT22;57049;51.450;-2.516;2023-07-20T07:31:07;23.86;57.07
69776;DHT22;57049;51.450;-2.516;2023-07-20T07:33:33;24.84;54.09
69776;DHT22;57049;51.450;-2.516;2023-07-20T07:35:58;25.79;53.77
69776;DHT22;57049;51.450;-2.516;2023-07-20T07:38:24;24.87;52.03
69776;DHT22;57049;51.450;-2.516;2023-07-20T07:40:49;24.72;55.19
69776;DHT22;57049;51.450;-2.516;2023-07-20T07:43:15;23.92;53.89
69776;DHT22;57049;51.450;-2.516;2023-07-20T07:45:40;23.03;55.44
69776;DHT22;57049;51.450;-2.516;2023-07-20T07:48:06;21.77;58.26
69776;DHT22;57049;51.450;-2.516;2023-07-20T07:50:33;21.96;58.60
69776;DHT22;57049;51.450;-2.516;2023-07-20T07:52:58;22.37;56.26
69776;DHT22;57049;51.450;-2.516;2023-07-20T07:55:24;23.12;56.87
69776;DHT22;57049;51.450;-2.516;2023-07-20T07:57:51;22.86;56.47
69776;DHT22;57049;51.450;-2.516;2023-07-20T08:00:17;23.05;57.29
69776;DHT22;57049;51.450;-2.516;2023-07-20T08:02:44;23.35;56.68
69776;DHT22;57049;51.450;-2.516;2023-07-20T08:05:12;23.00;54.69
69776;DHT22;57049;51.450;-2.516;2023-07-20T08:07:37;23.15;56.24
69776;DHT22;57049;51.450;-2.516;2023-07-20T08:10:03;23.79;54.35
69776;DHT22;57049;51.450;-2.516;2023-07-20T08:12:29;23.35;54.09
69776;DHT22;57049;51.450;-2.516;2023-07-20T08:14:54;24.30;54.84
69776;DHT22;57049;51.450;-2.516;2023-07-20T08:17:20;25.69;52.90
69776;DHT22;57049;51.450;-2.516;2023-07-20T08:19:46;25.93;50.51
69776;DHT22;57049;51.450;-2.516;2023-07-20T08:22:11;26.27;49.07
69776;DHT22;57049;51.450;-2.516;2023-07-20T08:24:41;26.68;48.02
69776;DHT22;57049;51.450;-2.516;2023-07-20T08:27:07;27.19;46.18
69776;DHT22;57049;51.450;-2.516;2023-07-20T08:29:34;26.25;49.15
69776;DHT22;57049;51.450;-2.516;2023-07-20T08:31:59;26.63;48.59
69776;DHT22;57049;51.450;-2.516;2023-07-20T08:34:25;26.52;48.77
69776;DHT22;57049;51.450;-2.516;2023-07-20T08:36:52;26.07;49.79
69776;DHT22;57049;51.450;-2.516;2023-07-20T08:39:18;25.54;49.02
69776;DHT22;57049;51.450;-2.516;2023-07-20T08:41:44;26.25;49.75
69776;DHT22;57049;51.450;-2.516;2023-07-20T08:44:10;26.58;48.46
69776;DHT22;57049;51.450;-2.516;2023-07-20T08:46:38;26.68;50.15
69776;DHT22;57049;51.450;-2.516;2023-07-20T08:49:04;27.29;48.48
69776;DHT22;57049;51.450;-2.516;2023-07-20T08:51:30;27.64;45.91
69776;DHT22;57049;51.450;-2.516;2023-07-20T08:53:56;26.79;46.35
69776;DHT22;57049;51.450;-2.516;2023-07-20T08:56:23;27.53;46.05
69776;DHT22;57049;51.450;-2.516;2023-07-20T08:58:54;27.39;44.85
69776;DHT22;57049;51.450;-2.516;2023-07-20T09:01:20;25.25;47.97
69776;DHT22;57049;51.450;-2.516;2023-07-20T09:03:46;25.47;47.00
69776;DHT22;57049;51.450;-2.516;2023-07-20T09:06:12;26.00;48.40
69776;DHT22;57049;51.450;-2.516;2023-07-20T09:08:39;26.18;44.67
69776;DHT22;57049;51.450;-2.516;2023-07-20T09:11:05;25.42;44.42
69776;DHT22;57049;51.450;-2.516;2023-07-20T09:13:32;26.51;43.72
69776;DHT22;57049;51.450;-2.516;2023-07-20T09:15:58;25.15;46.67
69776;DHT22;57049;51.450;-2.516;2023-07-20T09:18:28;24.78;47.07
69776;DHT22;57049;51.450;-2.516;2023-07-20T09:21:04;25.91;48.91
69776;DHT22;57049;51.450;-2.516;2023-07-20T09:23:34;27.02;47.18
69776;DHT22;57049;51.450;-2.516;2023-07-20T09:26:01;27.83;45.58
69776;DHT22;57049;51.450;-2.516;2023-07-20T09:28:41;28.36;44.23
69776;DHT22;57049;51.450;-2.516;2023-07-20T09:31:17;28.56;41.20
69776;DHT22;57049;51.450;-2.516;2023-07-20T09:33:44;28.53;41.31
69776;DHT22;57049;51.450;-2.516;2023-07-20T09:36:09;28.93;40.99
69776;DHT22;57049;51.450;-2.516;2023-07-20T09:38:37;26.95;42.31
69776;DHT22;57049;51.450;-2.516;2023-07-20T09:41:05;26.75;43.06
69776;DHT22;57049;51.450;-2.516;2023-07-20T09:43:31;25.97;44.60
69776;DHT22;57049;51.450;-2.516;2023-07-20T09:45:58;25.35;44.77
69776;DHT22;57049;51.450;-2.516;2023-07-20T09:48:24;25.97;45.17
69776;DHT22;57049;51.450;-2.516;2023-07-20T09:50:50;27.24;45.41
69776;DHT22;57049;51.450;-2.516;2023-07-20T09:53:17;27.46;44.86
69776;DHT22;57049;51.450;-2.516;2023-07-20T09:55:47;27.06;46.68
69776;DHT22;57049;51.450;-2.516;2023-07-20T09:58:14;26.88;43.75
69776;DHT22;57049;51.450;-2.516;2023-07-20T10:00:41;26.16;47.18
69776;DHT22;57049;51.450;-2.516;2023-07-20T10:03:10;24.41;47.62
69776;DHT22;57049;51.450;-2.516;2023-07-20T10:05:43;22.83;50.94
69776;DHT22;57049;51.450;-2.516;2023-07-20T10:08:12;22.06;54.17
69776;DHT22;57049;51.450;-2.516;2023-07-20T10:10:40;21.55;54.59
69776;DHT22;57049;51.450;-2.516;2023-07-20T10:13:07;21.20;54.67
69776;DHT22;57049;51.450;-2.516;2023-07-20T10:15:48;21.08;55.23
69776;DHT22;57049;51.450;-2.516;2023-07-20T10:18:18;21.59;54.80
69776;DHT22;57049;51.450;-2.516;2023-07-20T10:20:46;22.24;53.30
69776;DHT22;57049;51.450;-2.516;2023-07-20T10:23:12;22.84;51.84
69776;DHT22;57049;51.450;-2.516;2023-07-20T10:25:38;22.22;50.32
69776;DHT22;57049;51.450;-2.516;2023-07-20T10:28:06;21.61;51.55
69776;DHT22;57049;51.450;-2.516;2023-07-20T10:30:36;21.50;53.42
69776;DHT22;57049;51.450;-2.516;2023-07-20T10:33:05;22.30;55.92
69776;DHT22;57049;51.450;-2.516;2023-07-20T10:35:31;23.07;55.32
69776;DHT22;57049;51.450;-2.516;2023-07-20T10:38:01;22.84;51.27
69776;DHT22;57049;51.450;-2.516;2023-07-20T10:40:31;22.17;54.20
69776;DHT22;57049;51.450;-2.516;2023-07-20T10:43:06;21.89;57.16
69776;DHT22;57049;51.450;-2.516;2023-07-20T10:45:44;20.93;57.61
69776;DHT22;57049;51.450;-2.516;2023-07-20T10:48:33;21.07;58.27
69776;DHT22;57049;51.450;-2.516;2023-07-20T10:53:34;20.60;58.58
69776;DHT22;57049;51.450;-2.516;2023-07-20T10:56:13;20.09;59.36
69776;DHT22;57049;51.450;-2.516;2023-07-20T10:58:40;20.05;58.95
69776;DHT22;57049;51.450;-2.516;2023-07-20T11:01:07;20.53;60.93
69776;DHT22;57049;51.450;-2.516;2023-07-20T11:03:34;21.12;60.44
69776;DHT22;57049;51.450;-2.516;2023-07-20T11:05:59;21.61;58.82
69776;DHT22;57049;51.450;-2.516;2023-07-20T11:08:45;21.92;54.75
69776;DHT22;57049;51.450;-2.516;2023-07-20T11:11:28;22.02;54.76
69776;DHT22;57049;51.450;-2.516;2023-07-20T11:13:59;21.82;53.76
69776;DHT22;57049;51.450;-2.516;2023-07-20T11:16:46;22.28;55.79
69776;DHT22;57049;51.450;-2.516;2023-07-20T11:19:20;22.26;51.90
69776;DHT22;57049;51.450;-2.516;2023-07-20T11:21:53;21.95;53.46
69776;DHT22;57049;51.450;-2.516;2023-07-20T11:24:19;22.17;53.93
69776;DHT22;57049;51.450;-2.516;2023-07-20T11:26:53;22.53;53.85
69776;DHT22;57049;51.450;-2.516;2023-07-20T11:29:20;21.77;52.82
69776;DHT22;57049;51.450;-2.516;2023-07-20T11:31:47;21.21;54.23
69776;DHT22;57049;51.450;-2.516;2023-07-20T11:34:22;21.57;53.36
69776;DHT22;57049;51.450;-2.516;2023-07-20T11:36:49;22.35;54.48
69776;DHT22;57049;51.450;-2.516;2023-07-20T11:39:19;22.80;51.31
69776;DHT22;57049;51.450;-2.516;2023-07-20T11:41:55;22.75;52.02
69776;DHT22;57049;51.450;-2.516;2023-07-20T11:44:23;22.77;53.79
69776;DHT22;57049;51.450;-2.516;2023-07-20T11:47:01;22.63;52.68
69776;DHT22;57049;51.450;-2.516;2023-07-20T11:49:30;21.75;53.12
69776;DHT22;57049;51.450;-2.516;2023-07-20T11:51:57;21.72;53.21
69776;DHT22;57049;51.450;-2.516;2023-07-20T11:54:23;21.58;54.08
69776;DHT22;57049;51.450;-2.516;2023-07-20T11:56:53;21.54;53.28
69776;DHT22;57049;51.450;-2.516;2023-07-20T11:59:22;21.81;54.19
69776;DHT22;57049;51.450;-2.516;2023-07-20T12:01:47;21.75;54.20
69776;DHT22;57049;51.450;-2.516;2023-07-20T12:04:13;21.54;53.49
69776;DHT22;57049;51.450;-2.516;2023-07-20T12:06:39;21.88;53.40
69776;DHT22;57049;51.450;-2.516;2023-07-20T12:09:04;22.01;54.42
69776;DHT22;57049;51.450;-2.516;2023-07-20T12:14:03;21.83;54.91
69776;DHT22;57049;51.450;-2.516;2023-07-20T12:16:29;22.17;55.14
69776;DHT22;57049;51.450;-2.516;2023-07-20T12:19:12;22.65;56.14
69776;DHT22;57049;51.450;-2.516;2023-07-20T12:21:39;23.16;53.76
69776;DHT22;57049;51.450;-2.516;2023-07-20T12:24:05;22.95;50.60
69776;DHT22;57049;51.450;-2.516;2023-07-20T12:26:32;23.25;52.55
69776;DHT22;57049;51.450;-2.516;2023-07-20T12:28:58;23.63;52.59
69776;DHT22;57049;51.450;-2.516;2023-07-20T12:31:25;23.54;52.95
69776;DHT22;57049;51.450;-2.516;2023-07-20T12:33:51;23.35;52.20
69776;DHT22;57049;51.450;-2.516;2023-07-20T12:36:17;23.14;53.90
69776;DHT22;57049;51.450;-2.516;2023-07-20T12:38:43;22.97;52.98
69776;DHT22;57049;51.450;-2.516;2023-07-20T12:41:10;22.95;53.57
69776;DHT22;57049;51.450;-2.516;2023-07-20T12:43:38;23.39;52.03
69776;DHT22;57049;51.450;-2.516;2023-07-20T12:46:03;24.09;51.78
69776;DHT22;57049;51.450;-2.516;2023-07-20T12:48:29;24.33;50.30
69776;DHT22;57049;51.450;-2.516;2023-07-20T12:50:55;24.53;51.13
69776;DHT22;57049;51.450;-2.516;2023-07-20T12:53:21;24.44;50.40
69776;DHT22;57049;51.450;-2.516;2023-07-20T12:55:47;24.60;51.39
69776;DHT22;57049;51.450;-2.516;2023-07-20T12:58:13;24.44;49.11
69776;DHT22;57049;51.450;-2.516;2023-07-20T13:00:39;24.40;49.56
69776;DHT22;57049;51.450;-2.516;2023-07-20T13:03:05;23.99;49.71
69776;DHT22;57049;51.450;-2.516;2023-07-20T13:05:32;24.02;50.35
69776;DHT22;57049;51.450;-2.516;2023-07-20T13:07:58;23.96;49.91
69776;DHT22;57049;51.450;-2.516;2023-07-20T13:10:26;23.65;51.13
69776;DHT22;57049;51.450;-2.516;2023-07-20T13:12:52;23.44;51.11
69776;DHT22;57049;51.450;-2.516;2023-07-20T13:15:17;23.34;51.83
69776;DHT22;57049;51.450;-2.516;2023-07-20T13:17:44;22.80;52.18
69776;DHT22;57049;51.450;-2.516;2023-07-20T13:20:10;22.43;54.34
69776;DHT22;57049;51.450;-2.516;2023-07-20T13:22:37;22.33;53.64
69776;DHT22;57049;51.450;-2.516;2023-07-20T13:25:02;23.22;54.66
69776;DHT22;57049;51.450;-2.516;2023-07-20T13:27:28;23.28;51.90
69776;DHT22;57049;51.450;-2.516;2023-07-20T13:29:55;23.35;52.73
69776;DHT22;57049;51.450;-2.516;2023-07-20T13:32:22;23.70;51.69
69776;DHT22;57049;51.450;-2.516;2023-07-20T13:34:47;23.51;51.81
69776;DHT22;57049;51.450;-2.516;2023-07-20T13:37:14;23.38;51.49
69776;DHT22;57049;51.450;-2.516;2023-07-20T13:39:39;23.21;52.97
69776;DHT22;57049;51.450;-2.516;2023-07-20T13:42:05;23.61;51.41
69776;DHT22;57049;51.450;-2.516;2023-07-20T13:44:31;23.52;49.90
69776;DHT22;57049;51.450;-2.516;2023-07-20T13:46:57;23.45;49.95
69776;DHT22;57049;51.450;-2.516;2023-07-20T13:49:23;23.46;50.75
69776;DHT22;57049;51.450;-2.516;2023-07-20T13:51:49;24.03;50.65
69776;DHT22;57049;51.450;-2.516;2023-07-20T13:54:14;23.96;50.84
69776;DHT22;57049;51.450;-2.516;2023-07-20T13:56:40;24.41;51.34
69776;DHT22;57049;51.450;-2.516;2023-07-20T13:59:06;23.77;50.48
69776;DHT22;57049;51.450;-2.516;2023-07-20T14:01:32;24.05;51.89
69776;DHT22;57049;51.450;-2.516;2023-07-20T14:03:59;23.99;49.91
69776;DHT22;57049;51.450;-2.516;2023-07-20T14:06:25;23.73;50.52
69776;DHT22;57049;51.450;-2.516;2023-07-20T14:08:54;23.24;53.99
69776;DHT22;57049;51.450;-2.516;2023-07-20T14:11:19;23.55;53.37
69776;DHT22;57049;51.450;-2.516;2023-07-20T14:13:45;23.26;51.70
69776;DHT22;57049;51.450;-2.516;2023-07-20T14:16:13;23.39;54.57
69776;DHT22;57049;51.450;-2.516;2023-07-20T14:18:39;23.65;52.79
69776;DHT22;57049;51.450;-2.516;2023-07-20T14:21:05;23.72;51.01
69776;DHT22;57049;51.450;-2.516;2023-07-20T14:23:32;23.89;54.35
69776;DHT22;57049;51.450;-2.516;2023-07-20T14:25:57;23.58;49.62
69776;DHT22;57049;51.450;-2.516;2023-07-20T14:28:24;23.93;50.05
69776;DHT22;57049;51.450;-2.516;2023-07-20T14:30:49;23.48;51.37
69776;DHT22;57049;51.450;-2.516;2023-07-20T14:33:15;24.21;51.85
69776;DHT22;57049;51.450;-2.516;2023-07-20T14:35:40;24.54;51.09
69776;DHT22;57049;51.450;-2.516;2023-07-20T14:38:05;24.91;52.46
69776;DHT22;57049;51.450;-2.516;2023-07-20T14:40:31;24.71;51.49
69776;DHT22;57049;51.450;-2.516;2023-07-20T14:42:56;24.72;52.14
69776;DHT22;57049;51.450;-2.516;2023-07-20T14:45:22;24.44;52.22
69776;DHT22;57049;51.450;-2.516;2023-07-20T14:47:48;23.85;53.74
69776;DHT22;57049;51.450;-2.516;2023-07-20T14:50:19;23.69;53.71
69776;DHT22;57049;51.450;-2.516;2023-07-20T14:52:45;23.46;54.28
69776;DHT22;57049;51.450;-2.516;2023-07-20T14:55:11;23.16;53.93
69776;DHT22;57049;51.450;-2.516;2023-07-20T14:57:36;23.08;56.42
69776;DHT22;57049;51.450;-2.516;2023-07-20T15:00:04;22.97;54.90
69776;DHT22;57049;51.450;-2.516;2023-07-20T15:02:36;22.91;54.66
69776;DHT22;57049;51.450;-2.516;2023-07-20T15:05:02;22.60;54.72
69776;DHT22;57049;51.450;-2.516;2023-07-20T15:07:28;22.50;55.83
69776;DHT22;57049;51.450;-2.516;2023-07-20T15:09:54;22.19;58.34
69776;DHT22;57049;51.450;-2.516;2023-07-20T15:12:19;21.26;60.10
69776;DHT22;57049;51.450;-2.516;2023-07-20T15:15:05;20.30;61.48
69776;DHT22;57049;51.450;-2.516;2023-07-20T15:17:31;19.79;62.74
69776;DHT22;57049;51.450;-2.516;2023-07-20T15:19:57;18.98;64.87
69776;DHT22;57049;51.450;-2.516;2023-07-20T15:22:23;18.86;65.95
69776;DHT22;57049;51.450;-2.516;2023-07-20T15:24:49;18.18;68.37
69776;DHT22;57049;51.450;-2.516;2023-07-20T15:27:14;17.90;69.54
69776;DHT22;57049;51.450;-2.516;2023-07-20T15:29:39;17.76;70.33